TimeCST,TemperatureF,Dew PointF,Humidity,Sea Level PressureIn,VisibilityMPH,Wind Direction,Wind SpeedMPH,Gust SpeedMPH,PrecipitationIn,Events,Conditions,WindDirDegrees,DateUTC
12:53 AM,19.9,15.1,81,30.49,10.0,South,4.6,-,N/A,,Clear,180,2013-01-18 06:53:00
1:53 AM,24.1,18.0,77,30.49,10.0,South,5.8,-,N/A,,Clear,170,2013-01-18 07:53:00
2:53 AM,23.0,17.1,78,30.50,10.0,South,5.8,-,N/A,,Clear,190,2013-01-18 08:53:00
3:53 AM,25.0,19.0,78,30.48,10.0,South,6.9,-,N/A,,Clear,190,2013-01-18 09:53:00
4:53 AM,27.0,19.9,75,30.47,10.0,South,11.5,-,N/A,,Clear,180,2013-01-18 10:53:00
5:53 AM,27.0,19.0,72,30.46,10.0,South,11.5,-,N/A,,Clear,190,2013-01-18 11:53:00
6:53 AM,28.0,19.9,72,30.46,10.0,South,12.7,-,N/A,,Clear,180,2013-01-18 12:53:00
7:53 AM,30.0,19.9,66,30.44,10.0,South,15.0,-,N/A,,Clear,190,2013-01-18 13:53:00
8:53 AM,33.1,21.0,61,30.45,10.0,SSW,18.4,-,N/A,,Clear,200,2013-01-18 14:53:00
9:53 AM,37.0,21.9,54,30.44,10.0,South,18.4,-,N/A,,Clear,190,2013-01-18 15:53:00
10:53 AM,41.0,24.1,51,30.41,10.0,SSW,17.3,23.0,N/A,,Clear,200,2013-01-18 16:53:00
11:53 AM,46.9,24.1,41,30.35,10.0,South,16.1,23.0,N/A,,Clear,190,2013-01-18 17:53:00
12:53 PM,50.0,24.1,36,30.29,10.0,South,15.0,24.2,N/A,,Clear,190,2013-01-18 18:53:00
1:53 PM,54.0,23.0,30,30.24,10.0,SSW,16.1,-,N/A,,Clear,200,2013-01-18 19:53:00
2:53 PM,55.0,21.9,28,30.22,10.0,SSW,18.4,26.5,N/A,,Clear,200,2013-01-18 20:53:00
3:53 PM,54.0,23.0,30,30.20,10.0,SSW,19.6,27.6,N/A,,Clear,200,2013-01-18 21:53:00
4:53 PM,50.0,24.1,36,30.20,10.0,South,17.3,-,N/A,,Clear,190,2013-01-18 22:53:00
5:53 PM,46.9,25.0,42,30.19,10.0,South,13.8,-,N/A,,Clear,190,2013-01-18 23:53:00
6:53 PM,45.0,25.0,46,30.19,10.0,South,15.0,-,N/A,,Clear,190,2013-01-19 00:53:00
7:53 PM,45.0,25.0,46,30.18,10.0,South,15.0,23.0,N/A,,Clear,190,2013-01-19 01:53:00
8:53 PM,44.1,25.0,47,30.16,10.0,South,17.3,23.0,N/A,,Clear,190,2013-01-19 02:53:00
9:53 PM,42.1,25.0,51,30.15,10.0,South,16.1,24.2,N/A,,Clear,190,2013-01-19 03:53:00
10:53 PM,41.0,25.0,53,30.15,10.0,SSW,11.5,-,N/A,,Clear,200,2013-01-19 04:53:00
11:53 PM,41.0,25.0,53,30.14,10.0,SSW,13.8,-,N/A,,Clear,200,2013-01-19 05:53:00